Crew | Aerofun Virtual



 METAR AND TAF INFORMATION
METAR FOR GMAD
ADDS - METARS form results

(0321 UTC 23 September 2019)
Data provider http://aviationweather.gov/metar/data/
 
METAR text: GMAD 230300Z 02003KT 9999 FEW016 17/16 Q1015 NOSIG
Conditions at: GMAD (AL MASSIRA MC , MA) observed 0300 UTC 23 September 2019
Temperature: 17.0°C (63°F)
Dewpoint: 16.0°C (61°F) [RH = 94%]
Pressure (altimeter): 29.97 inches Hg (1015.0 mb)
Winds: from the NNE (20 degrees) at 3 MPH (3 knots; 1.5 m/s)
Visibility: 6 or more miles (10+ km)
Ceiling: at least 12,000 feet AGL
Clouds: few clouds at 1600 feet AGL
Weather: no significant weather observed at this time

METAR text: GMAD 230230Z 00000KT 9999 FEW016 17/16 Q1015 NOSIG
Conditions at: GMAD (AL MASSIRA MC , MA) observed 0230 UTC 23 September 2019
Temperature: 17.0°C (63°F)
Dewpoint: 16.0°C (61°F) [RH = 94%]
Pressure (altimeter): 29.97 inches Hg (1015.0 mb)
Winds: calm
Visibility: 6 or more miles (10+ km)
Ceiling: at least 12,000 feet AGL
Clouds: few clouds at 1600 feet AGL
Weather: no significant weather observed at this time

Forecast for: GMAD (AL MASSIRA MC , MA)
Text: TAF GMAD 222300Z 2300/2406 12004KT 6000 BKN013
Forecast period: 0000 to 1000 UTC 23 September 2019
Forecast type: FROM: standard forecast or significant change
Winds: from the ESE (120 degrees) at 5 MPH (4 knots; 2.1 m/s)
Visibility: 4 miles (6 km)
Ceiling: 1300 feet AGL
Clouds: broken clouds at 1300 feet AGL
Weather: no significant weather forecast for this period
Text: BECMG 2310/2312 26010KT CAVOK
Forecast period: 1000 UTC 23 September 2019 to 0600 UTC 24 September 2019
Forecast type: BECOMING: Conditions expected to become as follows by 1200 UTC 23 September 2019
Winds: from the W (260 degrees) at 12 MPH (10 knots; 5.1 m/s)
Visibility: 6 or more miles 10+ km)
Ceiling: unknown
Clouds: missing
Weather: NSW  (no significant weather)

 AIRPORT MAP

 RUNWAY INFORMATION
Runway 10 Runway length 10499 ft Runway width 148 ft
Runway elevation 198 ft Runway displaced threshold 0 ft Runway heading 92
Runway 28 Runway length 10499 ft Runway width 148 ft
Runway elevation 254 ft Runway displaced threshold 0 ft Runway heading 272

 AIRPORT FREQUENCIES
Type APP Name AGADIR APP Frequency 120.9 MHZ
Type TWR Name AGADIR TWR Frequency 119.5 MHZ

 AIRPORT NEAR NAVIGATION AIDS
Type VOR-DME Name Agadir Frequency 117200 KHZ
Type NDB Name Agadir Frequency 396 KHZ
Type NDB Name Agadir Frequency 402 KHZ